createdAt,value
2018-04-12T00:00:02.604Z,13.29
2018-04-12T00:01:02.518Z,13.30
2018-04-12T00:02:02.443Z,13.28
2018-04-12T00:03:02.370Z,13.29
2018-04-12T00:04:02.292Z,13.20
2018-04-12T00:05:02.204Z,13.15
2018-04-12T00:06:02.129Z,13.12
2018-04-12T00:07:02.054Z,13.11
2018-04-12T00:08:01.968Z,13.14
2018-04-12T00:09:01.894Z,13.03
2018-04-12T00:10:01.818Z,13.00
2018-04-12T00:11:01.730Z,13.15
2018-04-12T00:12:01.656Z,13.11
2018-04-12T00:13:01.579Z,13.26
2018-04-12T00:14:01.494Z,13.25
2018-04-12T00:15:01.419Z,13.17
2018-04-12T00:16:01.343Z,13.20
2018-04-12T00:17:01.255Z,13.22
2018-04-12T00:18:01.183Z,13.20
2018-04-12T00:19:01.105Z,13.26
2018-04-12T00:20:01.018Z,13.30
2018-04-12T00:21:00.945Z,13.26
2018-04-12T00:22:00.868Z,13.25
2018-04-12T00:23:00.781Z,13.14
2018-04-12T00:24:00.705Z,13.17
2018-04-12T00:25:00.631Z,13.19
2018-04-12T00:26:00.544Z,13.14
2018-04-12T00:27:00.469Z,13.26
2018-04-12T00:28:00.397Z,13.14
2018-04-12T00:29:00.306Z,13.14
2018-04-12T00:30:00.231Z,13.14
2018-04-12T00:31:00.159Z,13.15
2018-04-12T00:32:00.070Z,13.08
2018-04-12T00:32:59.995Z,13.23
2018-04-12T00:33:59.919Z,13.28
2018-04-12T00:34:59.833Z,13.22
2018-04-12T00:35:59.757Z,13.20
2018-04-12T00:36:59.681Z,13.25
2018-04-12T00:37:59.596Z,13.14
2018-04-12T00:38:59.520Z,13.14
2018-04-12T00:39:59.445Z,13.12
2018-04-12T00:40:59.358Z,13.11
2018-04-12T00:41:59.283Z,13.14
2018-04-12T00:42:59.215Z,13.17
2018-04-12T00:43:59.121Z,13.10
2018-04-12T00:44:59.046Z,13.17
2018-04-12T00:45:58.971Z,13.11
2018-04-12T00:46:58.883Z,13.04
2018-04-12T00:47:58.808Z,13.12
2018-04-12T00:48:58.734Z,13.05
2018-04-12T00:49:58.658Z,13.10
2018-04-12T00:50:58.571Z,13.08
2018-04-12T00:51:58.496Z,13.04
2018-04-12T00:52:58.409Z,13.00
2018-04-12T00:53:58.333Z,12.93
2018-04-12T00:54:58.262Z,12.95
2018-04-12T00:55:58.173Z,12.92
2018-04-12T00:56:58.097Z,12.90
2018-04-12T00:57:58.022Z,12.87
2018-04-12T00:58:57.935Z,12.83
2018-04-12T00:59:57.859Z,12.86
2018-04-12T01:00:57.785Z,12.82
2018-04-12T01:01:57.698Z,12.79
2018-04-12T01:02:57.624Z,12.78
2018-04-12T01:03:57.549Z,12.78
2018-04-12T01:04:57.461Z,12.86
2018-04-12T01:05:57.387Z,12.83
2018-04-12T01:06:57.311Z,12.78
2018-04-12T01:07:57.225Z,12.78
2018-04-12T01:08:57.153Z,12.78
2018-04-12T01:09:57.078Z,12.78
2018-04-12T01:10:56.988Z,12.82
2018-04-12T01:11:56.912Z,12.79
2018-04-12T01:12:56.850Z,12.78
2018-04-12T01:13:56.751Z,12.78
2018-04-12T01:14:56.682Z,12.67
2018-04-12T01:15:56.601Z,12.67
2018-04-12T01:16:56.512Z,12.75
2018-04-12T01:17:56.450Z,12.62
2018-04-12T01:18:56.363Z,12.68
2018-04-12T01:19:56.281Z,12.57
2018-04-12T01:20:56.201Z,12.53
2018-04-12T01:21:56.130Z,12.60
2018-04-12T01:22:56.051Z,12.57
2018-04-12T01:23:55.963Z,12.68
2018-04-12T01:24:55.889Z,12.72
2018-04-12T01:25:55.801Z,12.56
2018-04-12T01:26:55.726Z,12.54
2018-04-12T01:27:55.652Z,12.59
2018-04-12T01:28:55.563Z,12.56
2018-04-12T01:29:55.488Z,12.54
2018-04-12T01:30:55.402Z,12.57
2018-04-12T01:31:55.327Z,12.56
2018-04-12T01:32:55.256Z,12.56
2018-04-12T01:33:55.164Z,12.62
2018-04-12T01:34:55.090Z,12.53
2018-04-12T01:35:55.015Z,12.62
2018-04-12T01:36:54.929Z,12.57
2018-04-12T01:37:54.853Z,12.64
2018-04-12T01:38:54.782Z,12.60
2018-04-12T01:39:54.689Z,12.62
2018-04-12T01:40:54.614Z,12.54
2018-04-12T01:41:54.539Z,12.49
2018-04-12T01:42:54.453Z,12.54
2018-04-12T01:43:54.378Z,12.57
2018-04-12T01:44:54.292Z,12.57
2018-04-12T01:45:54.214Z,12.49
2018-04-12T01:46:54.142Z,12.49
2018-04-12T01:47:54.053Z,12.45
2018-04-12T01:48:53.978Z,12.53
2018-04-12T01:49:53.904Z,12.47
2018-04-12T01:50:53.815Z,12.49
2018-04-12T01:51:53.741Z,12.49
2018-04-12T01:52:53.677Z,12.49
2018-04-12T01:53:53.579Z,12.42
2018-04-12T01:54:53.505Z,12.50
2018-04-12T01:55:53.429Z,12.37
2018-04-12T01:56:53.341Z,12.49
2018-04-12T01:57:53.280Z,12.46
2018-04-12T01:58:53.195Z,12.49
2018-04-12T01:59:53.105Z,12.42
2018-04-12T02:00:53.034Z,12.41
2018-04-12T02:01:52.953Z,12.34
2018-04-12T02:02:52.880Z,12.35
2018-04-12T02:03:52.792Z,12.38
2018-04-12T02:04:52.715Z,12.38
2018-04-12T02:05:52.630Z,12.34
2018-04-12T02:06:52.556Z,12.34
2018-04-12T02:07:52.480Z,12.41
2018-04-12T02:08:52.392Z,12.32
2018-04-12T02:09:52.317Z,12.38
2018-04-12T02:10:52.242Z,12.38
2018-04-12T02:11:52.156Z,12.32
2018-04-12T02:12:52.081Z,12.37
2018-04-12T02:13:51.993Z,12.39
2018-04-12T02:14:51.918Z,12.38
2018-04-12T02:15:51.843Z,12.35
2018-04-12T02:16:51.760Z,12.39
2018-04-12T02:17:51.682Z,12.32
2018-04-12T02:18:51.597Z,12.31
2018-04-12T02:19:51.518Z,12.34
2018-04-12T02:20:51.445Z,12.28
2018-04-12T02:21:51.358Z,12.35
2018-04-12T02:22:51.348Z,12.37
2018-04-12T02:23:51.207Z,12.32
2018-04-12T02:24:51.121Z,12.23
2018-04-12T02:25:51.045Z,12.29
2018-04-12T02:26:50.969Z,12.28
2018-04-12T02:27:50.885Z,12.19
2018-04-12T02:28:50.813Z,12.19
2018-04-12T02:29:50.733Z,12.23
2018-04-12T02:30:50.647Z,12.23
2018-04-12T02:31:50.569Z,12.16
2018-04-12T02:32:50.486Z,12.21
2018-04-12T02:33:50.410Z,12.16
2018-04-12T02:34:50.337Z,12.10
2018-04-12T02:35:50.245Z,12.12
2018-04-12T02:36:50.171Z,12.12
2018-04-12T02:37:50.095Z,12.14
2018-04-12T02:38:50.008Z,12.13
2018-04-12T02:39:49.934Z,12.07
2018-04-12T02:40:49.858Z,12.10
2018-04-12T02:41:49.771Z,11.96
2018-04-12T02:42:49.695Z,11.99
2018-04-12T02:43:49.609Z,12.05
2018-04-12T02:44:49.534Z,12.01
2018-04-12T02:45:49.460Z,12.05
2018-04-12T02:46:49.374Z,11.99
2018-04-12T02:47:49.297Z,12.01
2018-04-12T02:48:49.222Z,11.95
2018-04-12T02:49:49.135Z,11.94
2018-04-12T02:50:49.064Z,11.91
2018-04-12T02:51:48.974Z,11.95
2018-04-12T02:52:48.898Z,11.96
2018-04-12T02:53:48.824Z,12.01
2018-04-12T02:54:48.737Z,12.02
2018-04-12T02:55:48.668Z,12.07
2018-04-12T02:56:48.587Z,11.98
2018-04-12T02:57:48.500Z,11.98
2018-04-12T02:58:48.423Z,11.88
2018-04-12T02:59:48.337Z,11.95
2018-04-12T03:00:48.261Z,11.96
2018-04-12T03:01:48.187Z,11.90
2018-04-12T03:02:48.098Z,11.91
2018-04-12T03:03:48.023Z,11.90
2018-04-12T03:04:47.949Z,11.86
2018-04-12T03:05:47.866Z,11.91
2018-04-12T03:06:47.788Z,11.88
2018-04-12T03:07:47.702Z,11.88
2018-04-12T03:08:47.624Z,11.86
2018-04-12T03:09:47.549Z,11.98
2018-04-12T03:10:47.463Z,11.94
2018-04-12T03:11:47.387Z,11.88
2018-04-12T03:12:47.313Z,11.79
2018-04-12T03:13:47.224Z,11.80
2018-04-12T03:14:47.149Z,11.75
2018-04-12T03:15:47.063Z,11.70
2018-04-12T03:16:46.988Z,11.67
2018-04-12T03:17:46.913Z,11.67
2018-04-12T03:18:46.825Z,11.67
2018-04-12T03:19:46.750Z,11.69
2018-04-12T03:20:46.664Z,11.70
2018-04-12T03:21:46.589Z,11.78
2018-04-12T03:22:46.513Z,11.79
2018-04-12T03:23:46.425Z,11.72
2018-04-12T03:24:46.350Z,11.79
2018-04-12T03:25:46.275Z,11.70
2018-04-12T03:26:46.189Z,11.69
2018-04-12T03:27:46.123Z,11.75
2018-04-12T03:28:46.026Z,11.70
2018-04-12T03:29:45.953Z,11.64
2018-04-12T03:30:45.881Z,11.69
2018-04-12T03:31:45.792Z,11.60
2018-04-12T03:32:45.714Z,11.72
2018-04-12T03:33:45.628Z,11.65
2018-04-12T03:34:45.551Z,11.72
2018-04-12T03:35:45.476Z,11.65
2018-04-12T03:36:45.389Z,11.57
2018-04-12T03:37:45.314Z,11.67
2018-04-12T03:38:45.239Z,11.57
2018-04-12T03:39:45.153Z,11.60
2018-04-12T03:40:45.076Z,11.65
2018-04-12T03:41:44.990Z,11.64
2018-04-12T03:42:44.915Z,11.67
2018-04-12T03:43:44.840Z,11.62
2018-04-12T03:44:44.752Z,11.67
2018-04-12T03:45:44.677Z,11.69
2018-04-12T03:46:44.590Z,11.72
2018-04-12T03:47:44.515Z,11.65
2018-04-12T03:48:44.457Z,11.73
2018-04-12T03:49:44.371Z,11.67
2018-04-12T03:50:44.280Z,11.70
2018-04-12T03:51:44.202Z,11.64
2018-04-12T03:52:44.116Z,11.60
2018-04-12T03:53:44.041Z,11.64
2018-04-12T03:54:43.954Z,11.65
2018-04-12T03:55:43.878Z,11.61
2018-04-12T03:56:43.803Z,11.67
2018-04-12T03:57:43.717Z,11.67
2018-04-12T03:58:43.642Z,11.70
2018-04-12T03:59:43.566Z,11.60
2018-04-12T04:00:43.479Z,11.69
2018-04-12T04:01:43.470Z,11.65
2018-04-12T04:02:43.321Z,11.61
2018-04-12T04:03:43.243Z,11.62
2018-04-12T04:04:43.155Z,11.58
2018-04-12T04:05:43.079Z,11.60
2018-04-12T04:06:43.004Z,11.55
2018-04-12T04:07:42.919Z,11.52
2018-04-12T04:08:42.842Z,11.57
2018-04-12T04:09:42.756Z,11.60
2018-04-12T04:10:42.679Z,11.61
2018-04-12T04:11:42.604Z,11.64
2018-04-12T04:12:42.519Z,11.58
2018-04-12T04:13:42.444Z,11.65
2018-04-12T04:14:42.368Z,11.67
2018-04-12T04:15:42.280Z,11.65
2018-04-12T04:16:42.205Z,11.60
2018-04-12T04:17:42.129Z,11.57
2018-04-12T04:18:42.043Z,11.51
2018-04-12T04:19:41.968Z,11.49
2018-04-12T04:20:41.884Z,11.58
2018-04-12T04:21:41.805Z,11.58
2018-04-12T04:22:41.730Z,11.57
2018-04-12T04:23:41.644Z,11.65
2018-04-12T04:24:41.569Z,11.58
2018-04-12T04:25:41.482Z,11.62
2018-04-12T04:26:41.406Z,11.57
2018-04-12T04:27:41.331Z,11.62
2018-04-12T04:28:41.244Z,11.67
2018-04-12T04:29:41.170Z,11.58
2018-04-12T04:30:41.095Z,11.62
2018-04-12T04:31:41.007Z,11.64
2018-04-12T04:32:40.931Z,11.65
2018-04-12T04:33:40.850Z,11.65
2018-04-12T04:34:40.771Z,11.62
2018-04-12T04:35:40.682Z,11.60
2018-04-12T04:36:40.609Z,11.62
2018-04-12T04:37:40.534Z,11.62
2018-04-12T04:38:40.446Z,11.57
2018-04-12T04:39:40.371Z,11.60
2018-04-12T04:40:40.285Z,11.60
2018-04-12T04:41:40.209Z,11.67
2018-04-12T04:42:40.122Z,11.57
2018-04-12T04:43:40.047Z,11.62
2018-04-12T04:44:39.973Z,11.57
2018-04-12T04:45:39.885Z,11.61
2018-04-12T04:46:39.808Z,11.60
2018-04-12T04:47:39.721Z,11.54
2018-04-12T04:48:39.647Z,11.62
2018-04-12T04:49:39.572Z,11.62
2018-04-12T04:50:39.484Z,11.64
2018-04-12T04:51:39.409Z,11.64
2018-04-12T04:52:39.333Z,11.58
2018-04-12T04:53:39.251Z,11.54
2018-04-12T04:54:39.177Z,11.57
2018-04-12T04:55:39.089Z,11.57
2018-04-12T04:56:39.016Z,11.52
2018-04-12T04:57:38.923Z,11.57
2018-04-12T04:58:38.849Z,11.54
2018-04-12T04:59:38.775Z,11.57
2018-04-12T05:00:38.685Z,11.57
2018-04-12T05:01:38.615Z,11.52
2018-04-12T05:02:38.524Z,11.58
2018-04-12T05:03:38.448Z,11.54
2018-04-12T05:04:38.373Z,11.64
2018-04-12T05:05:38.286Z,11.54
2018-04-12T05:06:38.211Z,11.61
2018-04-12T05:07:38.136Z,11.62
2018-04-12T05:08:38.050Z,11.61
2018-04-12T05:09:37.974Z,11.58
2018-04-12T05:10:37.886Z,11.69
2018-04-12T05:11:37.812Z,11.88
2018-04-12T05:12:37.752Z,11.90
2018-04-12T05:13:37.649Z,11.98
2018-04-12T05:14:37.577Z,11.96
2018-04-12T05:15:37.557Z,12.09
2018-04-12T05:16:37.411Z,11.95
2018-04-12T05:17:37.338Z,12.13
2018-04-12T05:18:37.250Z,12.13
2018-04-12T05:19:37.179Z,12.16
2018-04-12T05:20:37.089Z,12.29
2018-04-12T05:21:37.011Z,12.27
2018-04-12T05:22:36.938Z,12.29
2018-04-12T05:23:36.851Z,12.35
2018-04-12T05:24:36.776Z,12.42
2018-04-12T05:25:36.700Z,12.37
2018-04-12T05:26:36.612Z,12.34
2018-04-12T05:27:36.550Z,12.35
2018-04-12T05:28:36.462Z,12.29
2018-04-12T05:29:36.379Z,12.28
2018-04-12T05:30:36.301Z,12.31
2018-04-12T05:31:36.213Z,12.31
2018-04-12T05:32:36.151Z,12.32
2018-04-12T05:33:36.063Z,12.37
2018-04-12T05:34:35.984Z,12.46
2018-04-12T05:35:35.901Z,12.32
2018-04-12T05:36:35.829Z,12.45
2018-04-12T05:37:35.751Z,12.39
2018-04-12T05:38:35.663Z,12.24
2018-04-12T05:39:35.589Z,12.27
2018-04-12T05:40:35.502Z,12.34
2018-04-12T05:41:35.427Z,12.31
2018-04-12T05:42:35.352Z,12.37
2018-04-12T05:43:35.264Z,12.37
2018-04-12T05:44:35.189Z,12.27
2018-04-12T05:45:35.102Z,12.35
2018-04-12T05:46:35.031Z,12.38
2018-04-12T05:47:34.952Z,12.37
2018-04-12T05:48:34.864Z,12.34
2018-04-12T05:49:34.790Z,12.35
2018-04-12T05:50:34.714Z,12.39
2018-04-12T05:51:34.631Z,12.45
2018-04-12T05:52:34.552Z,12.52
2018-04-12T05:53:34.478Z,12.46
2018-04-12T05:54:34.389Z,12.53
2018-04-12T05:55:34.315Z,12.45
2018-04-12T05:56:34.239Z,12.32
2018-04-12T05:57:34.153Z,12.46
2018-04-12T05:58:34.078Z,12.38
2018-04-12T05:59:34.003Z,12.31
2018-04-12T06:00:33.915Z,12.49
2018-04-12T06:01:33.853Z,12.59
2018-04-12T06:02:33.766Z,12.59
2018-04-12T06:03:33.685Z,12.60
2018-04-12T06:04:33.603Z,12.70
2018-04-12T06:05:33.528Z,12.65
2018-04-12T06:06:33.440Z,12.85
2018-04-12T06:07:33.366Z,12.71
2018-04-12T06:08:33.291Z,12.72
2018-04-12T06:09:33.204Z,12.92
2018-04-12T06:10:33.129Z,13.25
2018-04-12T06:11:33.056Z,13.26
2018-04-12T06:12:32.966Z,13.44
2018-04-12T06:13:32.891Z,13.42
2018-04-12T06:14:32.818Z,13.69
2018-04-12T06:15:32.742Z,13.70
2018-04-12T06:16:32.655Z,13.49
2018-04-12T06:17:32.582Z,13.41
2018-04-12T06:18:32.496Z,13.41
2018-04-12T06:19:32.418Z,13.42
2018-04-12T06:20:32.345Z,13.29
2018-04-12T06:21:32.268Z,13.28
2018-04-12T06:22:32.183Z,13.38
2018-04-12T06:23:32.106Z,13.39
2018-04-12T06:24:32.033Z,13.48
2018-04-12T06:25:31.945Z,13.57
2018-04-12T06:26:31.871Z,13.52
2018-04-12T06:27:31.794Z,13.30
2018-04-12T06:28:31.773Z,13.52
2018-04-12T06:29:31.643Z,13.46
2018-04-12T06:30:31.557Z,13.66
2018-04-12T06:31:31.483Z,13.85
2018-04-12T06:32:31.407Z,13.81
2018-04-12T06:33:31.319Z,13.75
2018-04-12T06:34:31.245Z,13.63
2018-04-12T06:35:31.170Z,13.66
2018-04-12T06:36:31.094Z,13.70
2018-04-12T06:37:31.009Z,13.73
2018-04-12T06:38:30.933Z,13.60
2018-04-12T06:39:30.862Z,13.75
2018-04-12T06:40:30.773Z,13.60
2018-04-12T06:41:30.698Z,13.54
2018-04-12T06:42:30.633Z,13.63
2018-04-12T06:43:30.544Z,13.82
2018-04-12T06:44:30.463Z,13.73
2018-04-12T06:45:30.382Z,13.95
2018-04-12T06:46:30.312Z,13.78
2018-04-12T06:47:30.233Z,13.84
2018-04-12T06:48:30.147Z,13.88
2018-04-12T06:49:30.070Z,13.95
2018-04-12T06:50:29.995Z,13.97
2018-04-12T06:51:29.919Z,13.73
2018-04-12T06:52:29.834Z,13.70
2018-04-12T06:53:29.759Z,13.69
2018-04-12T06:54:29.683Z,13.70
2018-04-12T06:55:29.608Z,13.78
2018-04-12T06:56:29.524Z,13.77
2018-04-12T06:57:29.445Z,13.69
2018-04-12T06:58:29.384Z,13.69
2018-04-12T06:59:29.296Z,13.73
2018-04-12T07:00:29.220Z,13.88
2018-04-12T07:01:29.133Z,13.87
2018-04-12T07:02:29.059Z,13.92
2018-04-12T07:03:28.983Z,13.89
2018-04-12T07:04:28.908Z,13.89
2018-04-12T07:05:28.821Z,13.95
2018-04-12T07:06:28.745Z,13.91
2018-04-12T07:07:28.670Z,13.97
2018-04-12T07:08:28.595Z,13.99
2018-04-12T07:09:28.520Z,14.14
2018-04-12T07:10:28.434Z,14.07
2018-04-12T07:11:28.359Z,14.10
2018-04-12T07:12:28.285Z,14.09
2018-04-12T07:13:28.209Z,14.32
2018-04-12T07:14:28.124Z,14.28
2018-04-12T07:15:28.045Z,14.27
2018-04-12T07:16:27.970Z,14.24
2018-04-12T07:17:27.895Z,14.20
2018-04-12T07:18:27.812Z,14.32
2018-04-12T07:19:27.734Z,14.27
2018-04-12T07:20:27.660Z,14.32
2018-04-12T07:21:27.584Z,14.24
2018-04-12T07:22:27.497Z,14.22
2018-04-12T07:23:27.421Z,14.25
2018-04-12T07:24:27.362Z,14.28
2018-04-12T07:25:27.272Z,14.27
2018-04-12T07:26:27.196Z,14.21
2018-04-12T07:27:27.116Z,14.18
2018-04-12T07:28:27.035Z,14.24
2018-04-12T07:29:26.960Z,14.33
2018-04-12T07:30:26.884Z,14.36
2018-04-12T07:31:26.809Z,14.47
2018-04-12T07:32:26.723Z,14.57
2018-04-12T07:33:26.647Z,14.69
2018-04-12T07:34:26.572Z,14.77
2018-04-12T07:35:26.511Z,15.10
2018-04-12T07:36:26.422Z,15.07
2018-04-12T07:37:26.347Z,15.16
2018-04-12T07:38:26.260Z,15.23
2018-04-12T07:39:26.192Z,15.38
2018-04-12T07:40:26.111Z,15.44
2018-04-12T07:41:26.039Z,15.23
2018-04-12T07:42:25.961Z,15.38
2018-04-12T07:43:25.873Z,15.43
2018-04-12T07:44:25.800Z,15.36
2018-04-12T07:45:25.723Z,15.34
2018-04-12T07:46:25.648Z,15.64
2018-04-12T07:47:25.573Z,15.83
2018-04-12T07:48:25.499Z,15.84
2018-04-12T07:49:25.424Z,15.57
2018-04-12T07:50:25.338Z,15.72
2018-04-12T07:51:25.267Z,15.84
2018-04-12T07:52:25.187Z,15.90
2018-04-12T07:53:25.113Z,16.11
2018-04-12T07:54:25.042Z,15.93
2018-04-12T07:55:24.995Z,16.23
2018-04-12T07:56:24.889Z,16.86
2018-04-12T07:57:24.814Z,17.03
2018-04-12T07:58:24.737Z,16.79
2018-04-12T07:59:24.655Z,17.44
2018-04-12T08:00:24.578Z,17.64
2018-04-12T08:01:24.500Z,17.68
2018-04-12T08:02:24.426Z,17.77
2018-04-12T08:03:24.350Z,17.66
2018-04-12T08:04:24.276Z,17.52
2018-04-12T08:05:24.201Z,17.26
2018-04-12T08:06:24.128Z,17.62
2018-04-12T08:07:24.050Z,17.46
2018-04-12T08:08:23.989Z,17.26
2018-04-12T08:09:23.901Z,17.23
2018-04-12T08:10:23.827Z,17.08
2018-04-12T08:11:23.751Z,17.31
2018-04-12T08:12:23.677Z,17.30
2018-04-12T08:13:23.601Z,17.21
2018-04-12T08:14:23.527Z,17.49
2018-04-12T08:15:23.452Z,17.64
2018-04-12T08:16:23.376Z,17.56
2018-04-12T08:17:23.302Z,17.21
2018-04-12T08:18:23.227Z,17.19
2018-04-12T08:19:23.153Z,17.72
2018-04-12T08:20:23.091Z,17.82
2018-04-12T08:21:23.016Z,17.96
2018-04-12T08:22:22.942Z,17.81
2018-04-12T08:23:22.874Z,17.84
2018-04-12T08:24:22.791Z,17.71
2018-04-12T08:25:22.717Z,17.58
2018-04-12T08:26:22.641Z,17.37
2018-04-12T08:27:22.567Z,17.28
2018-04-12T08:28:22.492Z,17.34
2018-04-12T08:29:22.417Z,17.30
2018-04-12T08:30:22.342Z,17.82
2018-04-12T08:31:22.269Z,17.96
2018-04-12T08:32:22.192Z,18.50
2018-04-12T08:33:22.122Z,17.93
2018-04-12T08:34:22.043Z,17.89
2018-04-12T08:35:21.968Z,17.93
2018-04-12T08:36:21.893Z,17.86
2018-04-12T08:37:21.829Z,17.84
2018-04-12T08:38:21.755Z,17.96
2018-04-12T08:39:21.681Z,18.02
2018-04-12T08:40:21.605Z,18.63
2018-04-12T08:41:21.531Z,18.73
2018-04-12T08:42:21.455Z,18.78
2018-04-12T08:43:21.380Z,18.54
2018-04-12T08:44:21.305Z,18.33
2018-04-12T08:45:21.230Z,18.11
2018-04-12T08:46:21.156Z,17.95
2018-04-12T08:47:21.082Z,18.32
2018-04-12T08:48:21.020Z,18.62
2018-04-12T08:49:20.944Z,17.97
2018-04-12T08:50:20.869Z,17.86
2018-04-12T08:51:20.794Z,18.00
2018-04-12T08:52:20.720Z,17.79
2018-04-12T08:53:20.645Z,17.77
2018-04-12T08:54:20.583Z,17.68
2018-04-12T08:55:20.495Z,17.46
2018-04-12T08:56:20.432Z,17.44
2018-04-12T08:57:20.357Z,17.44
2018-04-12T08:58:20.282Z,17.46
2018-04-12T08:59:20.210Z,17.49
2018-04-12T09:00:20.132Z,17.46
2018-04-12T09:01:20.099Z,17.41
2018-04-12T09:02:19.987Z,17.38
2018-04-12T09:03:19.908Z,17.34
2018-04-12T09:04:19.833Z,17.31
2018-04-12T09:05:19.772Z,17.49
2018-04-12T09:06:19.684Z,17.66
2018-04-12T09:07:19.609Z,17.95
2018-04-12T09:08:19.535Z,18.26
2018-04-12T09:09:19.475Z,18.54
2018-04-12T09:10:19.401Z,18.70
2018-04-12T09:11:19.326Z,18.20
2018-04-12T09:12:19.246Z,18.20
2018-04-12T09:13:19.172Z,18.29
2018-04-12T09:14:19.099Z,18.42
2018-04-12T09:15:19.023Z,18.52
2018-04-12T09:16:18.947Z,18.75
2018-04-12T09:17:18.873Z,18.88
2018-04-12T09:18:18.798Z,18.84
2018-04-12T09:19:18.723Z,18.51
2018-04-12T09:20:18.649Z,18.66
2018-04-12T09:21:18.574Z,18.78
2018-04-12T09:22:18.500Z,18.82
2018-04-12T09:23:18.436Z,19.08
2018-04-12T09:24:18.397Z,19.37
2018-04-12T09:25:18.286Z,19.32
2018-04-12T09:26:18.211Z,19.71
2018-04-12T09:27:18.135Z,20.03
2018-04-12T09:28:18.061Z,20.03
2018-04-12T09:29:17.987Z,19.94
2018-04-12T09:30:17.912Z,20.36
2018-04-12T09:31:17.837Z,19.99
2018-04-12T09:32:17.764Z,20.13
2018-04-12T09:33:17.763Z,20.16
2018-04-12T09:34:17.627Z,20.08
2018-04-12T09:35:17.550Z,19.78
2018-04-12T09:36:17.476Z,19.37
2018-04-12T09:37:17.402Z,19.14
2018-04-12T09:38:17.326Z,18.88
2018-04-12T09:39:17.262Z,18.87
2018-04-12T09:40:17.201Z,18.72
2018-04-12T09:41:17.119Z,18.73
2018-04-12T09:42:17.038Z,18.87
2018-04-12T09:43:16.968Z,19.22
2018-04-12T09:44:16.890Z,19.32
2018-04-12T09:45:16.813Z,19.37
2018-04-12T09:46:16.771Z,19.48
2018-04-12T09:47:16.677Z,19.77
2018-04-12T09:48:16.602Z,19.54
2018-04-12T09:49:16.540Z,19.56
2018-04-12T09:50:16.458Z,19.55
2018-04-12T09:51:16.377Z,19.54
2018-04-12T09:52:16.303Z,19.32
2018-04-12T09:53:16.228Z,19.40
2018-04-12T09:54:16.153Z,19.43
2018-04-12T09:55:16.090Z,19.32
2018-04-12T09:56:16.015Z,19.44
2018-04-12T09:57:15.940Z,19.59
2018-04-12T09:58:15.865Z,19.55
2018-04-12T09:59:15.790Z,19.87
2018-04-12T10:00:15.715Z,20.13
2018-04-12T10:01:15.654Z,19.99
2018-04-12T10:02:15.565Z,20.01
2018-04-12T10:03:15.491Z,20.10
2018-04-12T10:04:15.430Z,20.28
2018-04-12T10:05:15.356Z,20.29
2018-04-12T10:06:15.286Z,20.32
2018-04-12T10:07:15.206Z,20.24
2018-04-12T10:08:15.129Z,20.59
2018-04-12T10:09:15.054Z,20.72
2018-04-12T10:10:14.983Z,20.69
2018-04-12T10:11:14.916Z,20.95
2018-04-12T10:12:14.858Z,20.79
2018-04-12T10:13:14.766Z,20.73
2018-04-12T10:14:14.691Z,20.85
2018-04-12T10:15:14.617Z,20.73
2018-04-12T10:16:14.555Z,20.69
2018-04-12T10:17:14.484Z,20.62
2018-04-12T10:18:14.406Z,20.31
2018-04-12T10:19:14.331Z,20.42
2018-04-12T10:20:14.256Z,20.47
2018-04-12T10:21:14.182Z,20.36
2018-04-12T10:22:14.118Z,20.18
2018-04-12T10:23:14.043Z,20.31
2018-04-12T10:24:13.969Z,20.41
2018-04-12T10:25:13.893Z,20.29
2018-04-12T10:26:13.828Z,20.10
2018-04-12T10:27:13.756Z,20.10
2018-04-12T10:28:13.682Z,20.29
2018-04-12T10:29:13.607Z,20.28
2018-04-12T10:30:13.543Z,20.39
2018-04-12T10:31:13.457Z,20.29
2018-04-12T10:32:13.397Z,20.29
2018-04-12T10:33:13.319Z,20.14
2018-04-12T10:34:13.247Z,20.28
2018-04-12T10:35:13.170Z,20.18
2018-04-12T10:36:13.095Z,20.33
2018-04-12T10:37:13.034Z,20.41
2018-04-12T10:38:12.961Z,20.54
2018-04-12T10:39:12.884Z,20.59
2018-04-12T10:40:12.807Z,20.59
2018-04-12T10:41:12.734Z,20.55
2018-04-12T10:42:12.663Z,20.72
2018-04-12T10:43:12.595Z,20.55
2018-04-12T10:44:12.534Z,20.76
2018-04-12T10:45:12.445Z,20.69
2018-04-12T10:46:12.372Z,20.72
2018-04-12T10:47:12.295Z,20.74
2018-04-12T10:48:12.234Z,20.72
2018-04-12T10:49:12.163Z,20.94
2018-04-12T10:50:12.088Z,21.09
2018-04-12T10:51:12.009Z,21.09
2018-04-12T10:52:11.934Z,21.13
2018-04-12T10:53:11.871Z,21.27
2018-04-12T10:54:11.797Z,21.21
2018-04-12T10:55:11.721Z,21.34
2018-04-12T10:56:11.664Z,21.32
2018-04-12T10:57:11.571Z,21.59
2018-04-12T10:58:11.497Z,21.79
2018-04-12T10:59:11.436Z,21.72
2018-04-12T11:00:11.361Z,21.88
2018-04-12T11:01:11.286Z,22.06
2018-04-12T11:02:11.209Z,22.14
2018-04-12T11:03:11.148Z,22.39
2018-04-12T11:04:11.072Z,22.37
2018-04-12T11:05:11.003Z,22.95
2018-04-12T11:06:10.935Z,23.55
2018-04-12T11:07:10.865Z,24.20
2018-04-12T11:08:10.785Z,24.47
2018-04-12T11:09:10.722Z,24.49
2018-04-12T11:10:10.647Z,24.43
2018-04-12T11:11:10.586Z,24.35
2018-04-12T11:12:10.511Z,24.08
2018-04-12T11:13:10.448Z,23.35
2018-04-12T11:14:10.373Z,23.05
2018-04-12T11:15:10.311Z,23.58
2018-04-12T11:16:10.239Z,24.49
2018-04-12T11:17:10.173Z,24.37
2018-04-12T11:18:10.101Z,24.50
2018-04-12T11:19:10.026Z,24.87
2018-04-12T11:20:09.961Z,25.10
2018-04-12T11:21:09.957Z,25.24
2018-04-12T11:22:09.823Z,25.83
2018-04-12T11:23:09.761Z,25.69
2018-04-12T11:24:09.688Z,25.33
2018-04-12T11:25:09.637Z,25.17
2018-04-12T11:26:09.562Z,25.67
2018-04-12T11:27:09.542Z,25.43
2018-04-12T11:28:09.438Z,25.61
2018-04-12T11:29:09.362Z,25.70
2018-04-12T11:30:09.299Z,26.10
2018-04-12T11:31:09.238Z,25.65
2018-04-12T11:32:09.162Z,25.20
2018-04-12T11:33:09.122Z,25.36
2018-04-12T11:34:09.054Z,25.83
2018-04-12T11:35:08.991Z,26.07
2018-04-12T11:36:08.899Z,25.24
2018-04-12T11:37:08.837Z,25.27
2018-04-12T11:38:08.763Z,25.65
2018-04-12T11:39:08.699Z,25.80
2018-04-12T11:40:08.637Z,25.32
2018-04-12T11:41:08.577Z,25.98
2018-04-12T11:42:08.500Z,25.20
2018-04-12T11:43:08.439Z,25.23
2018-04-12T11:44:08.375Z,24.80
2018-04-12T11:45:08.313Z,24.78
2018-04-12T11:46:08.238Z,25.32
2018-04-12T11:47:08.176Z,25.58
2018-04-12T11:48:08.114Z,25.42
2018-04-12T11:49:08.076Z,25.55
2018-04-12T11:50:07.978Z,25.33
2018-04-12T11:51:07.915Z,25.67
2018-04-12T11:52:07.852Z,25.83
2018-04-12T11:53:07.790Z,25.30
2018-04-12T11:54:07.727Z,24.81
2018-04-12T11:55:07.653Z,25.32
2018-04-12T11:56:07.606Z,25.67
2018-04-12T11:57:07.528Z,25.50
2018-04-12T11:58:07.465Z,25.65
2018-04-12T11:59:07.392Z,26.09
2018-04-12T12:00:07.328Z,26.43
2018-04-12T12:01:07.268Z,26.35
2018-04-12T12:02:07.203Z,25.64
2018-04-12T12:03:07.128Z,26.09
2018-04-12T12:04:07.066Z,25.75
2018-04-12T12:05:07.003Z,26.55
2018-04-12T12:06:06.942Z,26.52
2018-04-12T12:07:06.878Z,26.28
2018-04-12T12:08:06.804Z,25.51
2018-04-12T12:09:06.742Z,25.43
2018-04-12T12:10:06.681Z,25.06
2018-04-12T12:11:06.617Z,25.35
2018-04-12T12:12:06.542Z,25.61
2018-04-12T12:13:06.479Z,25.27
2018-04-12T12:14:06.420Z,25.21
2018-04-12T12:15:06.354Z,25.27
2018-04-12T12:16:06.280Z,25.45
2018-04-12T12:17:06.218Z,25.69
2018-04-12T12:18:06.155Z,26.10
2018-04-12T12:19:06.100Z,25.64
2018-04-12T12:20:06.030Z,25.67
2018-04-12T12:21:05.971Z,26.05
2018-04-12T12:22:05.897Z,26.01
2018-04-12T12:23:05.834Z,26.29
2018-04-12T12:24:05.769Z,26.62
2018-04-12T12:25:05.695Z,27.14
2018-04-12T12:26:05.631Z,27.28
2018-04-12T12:27:05.570Z,26.58
2018-04-12T12:28:05.512Z,26.37
2018-04-12T12:29:05.433Z,25.87
2018-04-12T12:30:05.370Z,26.23
2018-04-12T12:31:05.307Z,25.82
2018-04-12T12:32:05.246Z,25.33
2018-04-12T12:33:05.182Z,26.10
2018-04-12T12:34:05.108Z,25.73
2018-04-12T12:35:05.048Z,26.12
2018-04-12T12:36:04.983Z,26.07
2018-04-12T12:37:04.922Z,26.40
2018-04-12T12:38:04.860Z,26.51
2018-04-12T12:39:04.797Z,26.20
2018-04-12T12:40:04.721Z,26.65
2018-04-12T12:41:04.657Z,27.13
2018-04-12T12:42:04.598Z,27.03
2018-04-12T12:43:04.532Z,27.12
2018-04-12T12:44:04.459Z,27.22
2018-04-12T12:45:04.397Z,26.92
2018-04-12T12:46:04.333Z,27.21
2018-04-12T12:47:04.272Z,26.99
2018-04-12T12:48:04.208Z,26.89
2018-04-12T12:49:04.148Z,27.19
2018-04-12T12:50:04.076Z,27.24
2018-04-12T12:51:04.021Z,26.80